createdAt,value
2019-01-26T00:02:07.465Z,93.57
2019-01-26T00:04:37.930Z,93.37
2019-01-26T00:07:08.360Z,93.66
2019-01-26T00:09:38.845Z,93.54
2019-01-26T00:12:09.281Z,92.99
2019-01-26T00:14:39.718Z,92.76
2019-01-26T00:17:10.182Z,93.49
2019-01-26T00:19:40.615Z,92.92
2019-01-26T00:22:11.097Z,93.28
2019-01-26T00:24:41.532Z,94.11
2019-01-26T00:27:11.956Z,93.82
2019-01-26T00:29:42.424Z,94.03
2019-01-26T00:32:12.861Z,93.17
2019-01-26T00:34:43.358Z,93.50
2019-01-26T00:37:13.778Z,93.63
2019-01-26T00:39:45.140Z,93.87
2019-01-26T00:42:16.112Z,93.44
2019-01-26T00:44:46.546Z,94.20
2019-01-26T00:47:17.025Z,94.00
2019-01-26T00:49:47.458Z,94.36
2019-01-26T00:52:18.285Z,93.99
2019-01-26T00:54:48.749Z,94.50
2019-01-26T00:57:19.190Z,94.48
2019-01-26T00:59:50.632Z,94.45
2019-01-26T01:02:21.079Z,94.46
2019-01-26T01:04:51.720Z,94.96
2019-01-26T01:07:22.280Z,94.73
2019-01-26T01:09:53.061Z,94.95
2019-01-26T01:12:23.548Z,94.59
2019-01-26T01:14:54.037Z,94.93
2019-01-26T01:17:24.572Z,94.52
2019-01-26T01:19:55.032Z,94.65
2019-01-26T01:22:25.879Z,94.17
2019-01-26T01:24:56.359Z,94.84
2019-01-26T01:27:27.241Z,95.48
2019-01-26T01:29:57.681Z,94.99
2019-01-26T01:32:28.520Z,95.09
2019-01-26T01:34:58.952Z,95.96
2019-01-26T01:37:29.430Z,95.88
2019-01-26T01:39:59.869Z,95.83
2019-01-26T01:42:30.302Z,96.03
2019-01-26T01:45:00.765Z,95.83
2019-01-26T01:47:31.201Z,95.78
2019-01-26T01:50:01.684Z,96.01
2019-01-26T01:52:32.172Z,95.97
2019-01-26T01:55:02.660Z,95.86
2019-01-26T01:57:33.215Z,95.93
2019-01-26T02:00:04.636Z,96.08
2019-01-26T02:02:35.119Z,95.80
2019-01-26T02:05:06.674Z,95.86
2019-01-26T02:07:37.456Z,96.15
2019-01-26T02:10:09.315Z,95.96
2019-01-26T02:12:39.753Z,95.74
2019-01-26T02:15:11.368Z,95.79
2019-01-26T02:17:41.842Z,96.06
2019-01-26T02:20:14.664Z,96.45
2019-01-26T02:22:45.114Z,96.27
2019-01-26T02:25:15.541Z,96.33
2019-01-26T02:27:46.006Z,96.19
2019-01-26T02:30:22.475Z,96.30
2019-01-26T02:32:54.597Z,96.16
2019-01-26T02:35:25.406Z,96.28
2019-01-26T02:37:55.826Z,96.29
2019-01-26T02:40:26.376Z,96.16
2019-01-26T02:42:56.801Z,96.51
2019-01-26T02:45:27.271Z,96.94
2019-01-26T02:47:57.698Z,96.55
2019-01-26T02:50:28.120Z,96.72
2019-01-26T02:52:58.593Z,96.80
2019-01-26T02:55:29.015Z,96.94
2019-01-26T02:57:59.480Z,96.79
2019-01-26T03:00:29.912Z,96.55
2019-01-26T03:03:00.331Z,97.04
2019-01-26T03:05:30.784Z,96.47
2019-01-26T03:08:01.239Z,96.84
2019-01-26T03:10:31.700Z,96.79
2019-01-26T03:13:02.595Z,96.82
2019-01-26T03:15:33.095Z,96.50
2019-01-26T03:18:03.644Z,96.49
2019-01-26T03:20:34.070Z,96.46
2019-01-26T03:23:04.930Z,96.77
2019-01-26T03:25:35.531Z,97.11
2019-01-26T03:28:05.957Z,97.24
2019-01-26T03:30:36.761Z,97.58
2019-01-26T03:33:08.198Z,97.46
2019-01-26T03:35:38.731Z,97.60
2019-01-26T03:38:09.157Z,97.14
2019-01-26T03:40:39.671Z,97.47
2019-01-26T03:43:10.125Z,97.23
2019-01-26T03:45:40.549Z,97.54
2019-01-26T03:48:11.023Z,97.62
2019-01-26T03:50:41.858Z,97.42
2019-01-26T03:53:12.331Z,97.47
2019-01-26T03:55:43.127Z,97.39
2019-01-26T03:58:13.833Z,97.10
2019-01-26T04:00:44.373Z,97.08
2019-01-26T04:03:15.200Z,97.08
2019-01-26T04:05:45.626Z,97.02
2019-01-26T04:08:16.083Z,97.09
2019-01-26T04:10:46.503Z,97.57
2019-01-26T04:13:16.971Z,97.36
2019-01-26T04:15:47.401Z,97.59
2019-01-26T04:18:17.831Z,97.44
2019-01-26T04:20:48.281Z,97.55
2019-01-26T04:23:18.708Z,96.93
2019-01-26T04:25:49.170Z,97.24
2019-01-26T04:28:19.597Z,97.09
2019-01-26T04:30:50.019Z,97.07
2019-01-26T04:33:20.467Z,97.06
2019-01-26T04:35:51.442Z,97.31
2019-01-26T04:38:21.926Z,97.07
2019-01-26T04:40:52.364Z,97.17
2019-01-26T04:43:23.442Z,97.11
2019-01-26T04:45:53.899Z,97.33
2019-01-26T04:48:24.325Z,97.70
2019-01-26T04:50:54.795Z,97.73
2019-01-26T04:53:25.239Z,97.57
2019-01-26T04:55:55.664Z,97.23
2019-01-26T04:58:26.110Z,97.21
2019-01-26T05:00:56.541Z,97.29
2019-01-26T05:03:26.999Z,97.33
2019-01-26T05:05:57.419Z,97.39
2019-01-26T05:08:27.956Z,97.73
2019-01-26T05:10:58.403Z,98.19
2019-01-26T05:13:28.827Z,98.06
2019-01-26T05:15:59.303Z,98.25
2019-01-26T05:18:29.726Z,98.06
2019-01-26T05:21:00.147Z,98.29
2019-01-26T05:23:30.958Z,98.23
2019-01-26T05:26:01.380Z,98.03
2019-01-26T05:28:32.343Z,98.33
2019-01-26T05:31:02.768Z,98.37
2019-01-26T05:33:33.571Z,98.17
2019-01-26T05:36:04.653Z,98.38
2019-01-26T05:38:35.087Z,98.08
2019-01-26T05:41:05.545Z,97.92
2019-01-26T05:43:35.977Z,98.32
2019-01-26T05:46:06.729Z,98.26
2019-01-26T05:48:37.600Z,98.05
2019-01-26T05:51:08.056Z,98.51
2019-01-26T05:53:38.538Z,98.40
2019-01-26T05:56:08.970Z,98.40
2019-01-26T05:58:39.825Z,98.58
2019-01-26T06:01:10.282Z,98.58
2019-01-26T06:03:41.082Z,99.25
2019-01-26T06:06:11.894Z,99.17
2019-01-26T06:08:42.323Z,99.27
2019-01-26T06:11:13.090Z,99.62
2019-01-26T06:13:43.543Z,99.79
2019-01-26T06:16:13.967Z,100.00
2019-01-26T06:18:44.624Z,100.00
2019-01-26T06:21:15.055Z,99.95
2019-01-26T06:23:46.832Z,99.69
2019-01-26T06:26:17.408Z,99.96
2019-01-26T06:28:47.840Z,100.00
2019-01-26T06:31:18.316Z,100.00
2019-01-26T06:33:49.632Z,100.00
2019-01-26T06:36:20.066Z,100.00
2019-01-26T06:38:50.851Z,100.00
2019-01-26T06:41:21.280Z,100.00
2019-01-26T06:43:51.753Z,100.00
2019-01-26T06:46:22.185Z,100.00
2019-01-26T06:48:57.336Z,100.00
2019-01-26T06:51:28.077Z,100.00
2019-01-26T06:53:58.851Z,99.81
2019-01-26T06:56:29.305Z,100.00
2019-01-26T06:58:59.729Z,100.00
2019-01-26T07:01:30.213Z,99.86
2019-01-26T07:04:01.014Z,99.96
2019-01-26T07:06:37.331Z,100.00
2019-01-26T07:09:09.459Z,100.00
2019-01-26T07:11:39.891Z,99.95
2019-01-26T07:14:10.363Z,99.73
2019-01-26T07:16:40.792Z,100.00
2019-01-26T07:19:11.387Z,100.00
2019-01-26T07:21:41.867Z,100.00
2019-01-26T07:24:12.763Z,100.00
2019-01-26T07:26:43.192Z,100.00
2019-01-26T07:29:13.664Z,100.00
2019-01-26T07:31:44.193Z,100.00
2019-01-26T07:34:14.621Z,100.00
2019-01-26T07:36:45.087Z,100.00
2019-01-26T07:39:16.686Z,100.00
2019-01-26T07:41:47.491Z,100.00
2019-01-26T07:44:17.970Z,100.00
2019-01-26T07:46:48.746Z,100.00
2019-01-26T07:49:19.173Z,100.00
2019-01-26T07:51:49.649Z,100.00
2019-01-26T07:54:20.244Z,100.00
2019-01-26T07:56:50.632Z,100.00
2019-01-26T07:59:21.115Z,100.00
2019-01-26T08:01:51.919Z,100.00
2019-01-26T08:04:22.347Z,100.00
2019-01-26T08:06:52.823Z,100.00
2019-01-26T08:09:23.351Z,100.00
2019-01-26T08:11:53.787Z,100.00
2019-01-26T08:14:24.259Z,100.00
2019-01-26T08:16:54.691Z,100.00
2019-01-26T08:19:25.124Z,100.00
2019-01-26T08:21:55.601Z,100.00
2019-01-26T08:24:26.028Z,100.00
2019-01-26T08:26:56.465Z,100.00
2019-01-26T08:29:26.938Z,100.00
2019-01-26T08:31:57.427Z,100.00
2019-01-26T08:34:27.848Z,100.00
2019-01-26T08:36:58.326Z,100.00
2019-01-26T08:39:28.756Z,100.00
2019-01-26T08:41:59.204Z,100.00
2019-01-26T08:44:29.675Z,100.00
2019-01-26T08:47:00.109Z,100.00
2019-01-26T08:49:30.899Z,100.00
2019-01-26T08:52:01.379Z,100.00
2019-01-26T08:54:31.843Z,100.00
2019-01-26T08:57:02.277Z,100.00
2019-01-26T08:59:32.753Z,100.00
2019-01-26T09:02:25.554Z,100.00
2019-01-26T09:04:55.943Z,100.00
2019-01-26T09:07:26.527Z,100.00
2019-01-26T09:09:57.002Z,100.00
2019-01-26T09:12:28.623Z,100.00
2019-01-26T09:14:59.077Z,100.00
2019-01-26T09:17:30.227Z,100.00
2019-01-26T09:20:00.713Z,100.00
2019-01-26T09:22:31.495Z,100.00
2019-01-26T09:25:01.933Z,100.00
2019-01-26T09:27:32.403Z,100.00
2019-01-26T09:30:02.841Z,100.00
2019-01-26T09:32:33.281Z,100.00
2019-01-26T09:35:04.209Z,100.00
2019-01-26T09:37:34.646Z,100.00
2019-01-26T09:40:06.195Z,100.00
2019-01-26T09:42:36.672Z,100.00
2019-01-26T09:45:10.228Z,100.00
2019-01-26T09:47:40.668Z,100.00
2019-01-26T09:50:11.816Z,100.00
2019-01-26T09:52:42.404Z,100.00
2019-01-26T09:55:13.533Z,100.00
2019-01-26T09:57:44.011Z,100.00
2019-01-26T10:00:16.698Z,100.00
2019-01-26T10:02:47.237Z,100.00
2019-01-26T10:05:18.610Z,100.00
2019-01-26T10:07:49.367Z,100.00
2019-01-26T10:10:20.303Z,100.00
2019-01-26T10:12:50.746Z,100.00
2019-01-26T10:15:23.000Z,100.00
2019-01-26T10:17:53.633Z,99.81
2019-01-26T10:20:26.279Z,100.00
2019-01-26T10:22:56.773Z,100.00
2019-01-26T10:25:27.207Z,100.00
2019-01-26T10:27:57.744Z,100.00
2019-01-26T10:30:46.416Z,100.00
2019-01-26T10:33:16.860Z,100.00
2019-01-26T10:35:54.284Z,100.00
2019-01-26T10:38:24.723Z,100.00
2019-01-26T10:41:13.044Z,100.00
2019-01-26T10:43:47.042Z,100.00
2019-01-26T10:46:17.522Z,100.00
2019-01-26T10:48:48.053Z,100.00
2019-01-26T10:51:18.536Z,100.00
2019-01-26T10:53:48.960Z,100.00
2019-01-26T10:56:20.771Z,100.00
2019-01-26T10:58:51.261Z,100.00
2019-01-26T11:01:21.686Z,100.00
2019-01-26T11:03:52.161Z,99.88
2019-01-26T11:06:22.760Z,100.00
2019-01-26T11:08:53.208Z,100.00
2019-01-26T11:11:24.035Z,100.00
2019-01-26T11:13:54.474Z,99.95
2019-01-26T11:16:25.045Z,100.00
2019-01-26T11:18:55.834Z,99.90
2019-01-26T11:21:26.270Z,99.88
2019-01-26T11:23:57.401Z,100.00
2019-01-26T11:26:27.850Z,100.00
2019-01-26T11:28:59.207Z,99.92
2019-01-26T11:31:29.927Z,100.00
2019-01-26T11:34:00.369Z,100.00
2019-01-26T11:36:30.832Z,100.00
2019-01-26T11:39:01.273Z,100.00
2019-01-26T11:41:31.904Z,100.00
2019-01-26T11:44:02.350Z,100.00
2019-01-26T11:46:42.176Z,100.00
2019-01-26T11:49:15.265Z,100.00
2019-01-26T11:52:10.824Z,99.96
2019-01-26T11:55:00.261Z,100.00
2019-01-26T11:57:36.182Z,99.87
2019-01-26T12:00:32.319Z,99.86
2019-01-26T12:03:21.863Z,99.96
2019-01-26T12:06:02.508Z,99.83
2019-01-26T12:08:39.952Z,99.83
2019-01-26T12:11:10.388Z,99.52
2019-01-26T12:13:41.016Z,99.18
2019-01-26T12:16:11.448Z,98.99
2019-01-26T12:18:41.879Z,99.31
2019-01-26T12:21:12.345Z,98.95
2019-01-26T12:23:42.874Z,98.98
2019-01-26T12:26:13.367Z,99.20
2019-01-26T12:28:43.786Z,98.86
2019-01-26T12:31:14.558Z,98.55
2019-01-26T12:33:45.028Z,98.39
2019-01-26T12:36:15.460Z,98.74
2019-01-26T12:38:46.428Z,98.53
2019-01-26T12:41:16.858Z,98.25
2019-01-26T12:43:47.314Z,98.18
2019-01-26T12:46:17.799Z,98.49
2019-01-26T12:48:48.550Z,98.51
2019-01-26T12:51:18.983Z,98.60
2019-01-26T12:53:49.461Z,98.26
2019-01-26T12:56:19.931Z,98.53
2019-01-26T12:58:50.359Z,98.53
2019-01-26T13:01:21.110Z,98.31
2019-01-26T13:03:51.549Z,98.43
2019-01-26T13:06:21.988Z,98.29
2019-01-26T13:08:52.475Z,98.28
2019-01-26T13:11:25.171Z,98.46
2019-01-26T13:13:55.598Z,98.27
2019-01-26T13:16:26.338Z,98.06
2019-01-26T13:18:57.119Z,97.89
2019-01-26T13:21:27.659Z,97.83
2019-01-26T13:23:58.454Z,98.18
2019-01-26T13:26:28.894Z,97.95
2019-01-26T13:28:59.335Z,98.34
2019-01-26T13:31:30.161Z,98.11
2019-01-26T13:34:00.960Z,98.09
2019-01-26T13:36:31.706Z,98.29
2019-01-26T13:39:02.198Z,98.23
2019-01-26T13:41:32.623Z,98.55
2019-01-26T13:44:03.394Z,98.20
2019-01-26T13:46:33.870Z,98.03
2019-01-26T13:49:04.308Z,98.31
2019-01-26T13:51:34.727Z,98.57
2019-01-26T13:54:06.243Z,98.66
2019-01-26T13:56:36.711Z,98.57
2019-01-26T13:59:07.141Z,98.39
2019-01-26T14:01:37.615Z,98.84
2019-01-26T14:04:08.043Z,98.69
2019-01-26T14:06:38.482Z,98.68
2019-01-26T14:09:09.733Z,99.18
2019-01-26T14:11:40.163Z,99.66
2019-01-26T14:14:10.588Z,99.49
2019-01-26T14:16:41.075Z,99.45
2019-01-26T14:19:11.512Z,99.47
2019-01-26T14:21:41.931Z,99.68
2019-01-26T14:24:12.442Z,99.72
2019-01-26T14:26:49.524Z,100.00
2019-01-26T14:29:15.013Z,100.00
2019-01-26T14:31:45.552Z,100.00
2019-01-26T14:34:15.992Z,100.00
2019-01-26T14:36:46.424Z,100.00
2019-01-26T14:39:17.314Z,100.00
2019-01-26T14:41:47.749Z,100.00
2019-01-26T14:44:18.203Z,100.00
2019-01-26T14:46:48.706Z,100.00
2019-01-26T14:49:19.143Z,100.00
2019-01-26T14:51:49.592Z,100.00
2019-01-26T14:54:22.938Z,100.00
2019-01-26T14:56:53.714Z,99.89
2019-01-26T14:59:24.756Z,100.00
2019-01-26T15:01:55.242Z,100.00
2019-01-26T15:04:25.702Z,100.00
2019-01-26T15:06:57.857Z,100.00
2019-01-26T15:09:28.360Z,100.00
2019-01-26T15:11:58.795Z,99.93
2019-01-26T15:14:29.325Z,99.75
2019-01-26T15:16:59.877Z,99.67
2019-01-26T15:19:30.307Z,99.88
2019-01-26T15:22:00.808Z,99.51
2019-01-26T15:24:31.307Z,99.68
2019-01-26T15:27:01.837Z,99.29
2019-01-26T15:29:32.288Z,99.29
2019-01-26T15:32:03.041Z,99.25
2019-01-26T15:34:33.842Z,98.98
2019-01-26T15:37:04.685Z,98.62
2019-01-26T15:39:35.177Z,98.44
2019-01-26T15:42:05.607Z,98.26
2019-01-26T15:44:36.217Z,97.87
2019-01-26T15:47:06.820Z,97.53
2019-01-26T15:49:37.272Z,97.45
2019-01-26T15:52:07.688Z,97.09
2019-01-26T15:54:38.171Z,97.33
2019-01-26T15:57:08.601Z,97.36
2019-01-26T15:59:39.053Z,97.67
2019-01-26T16:02:09.527Z,97.41
2019-01-26T16:04:39.977Z,97.53
2019-01-26T16:07:10.861Z,97.62
2019-01-26T16:09:41.351Z,97.63
2019-01-26T16:12:11.804Z,97.67
2019-01-26T16:14:42.238Z,97.69
2019-01-26T16:17:12.742Z,97.68
2019-01-26T16:19:43.622Z,97.47
2019-01-26T16:22:14.077Z,97.69
2019-01-26T16:24:45.043Z,97.18
2019-01-26T16:27:15.761Z,97.23
2019-01-26T16:29:46.203Z,96.97
2019-01-26T16:32:16.710Z,96.92
2019-01-26T16:34:47.615Z,96.74
2019-01-26T16:37:20.211Z,96.59
2019-01-26T16:39:52.838Z,96.77
2019-01-26T16:42:23.294Z,97.03
2019-01-26T16:44:54.068Z,96.98
2019-01-26T16:47:24.556Z,97.20
2019-01-26T16:49:55.005Z,97.31
2019-01-26T16:52:25.457Z,97.19
2019-01-26T16:54:55.977Z,97.33
2019-01-26T16:57:26.429Z,97.10
2019-01-26T16:59:57.280Z,96.96
2019-01-26T17:02:27.762Z,96.93
2019-01-26T17:04:58.200Z,96.59
2019-01-26T17:07:28.633Z,96.29
2019-01-26T17:09:59.449Z,96.31
2019-01-26T17:12:29.919Z,96.19
2019-01-26T17:15:00.469Z,95.89
2019-01-26T17:17:31.390Z,95.90
2019-01-26T17:20:02.195Z,95.65
2019-01-26T17:22:32.894Z,95.18
2019-01-26T17:25:03.400Z,94.84
2019-01-26T17:27:33.842Z,94.61
2019-01-26T17:30:04.986Z,94.41
2019-01-26T17:32:35.481Z,94.17
2019-01-26T17:35:06.173Z,93.80
2019-01-26T17:37:36.609Z,93.59
2019-01-26T17:40:09.677Z,93.45
2019-01-26T17:42:40.136Z,93.14
2019-01-26T17:45:10.940Z,92.81
2019-01-26T17:47:41.424Z,92.54
2019-01-26T17:50:14.909Z,92.23
2019-01-26T17:52:46.033Z,91.85
2019-01-26T17:55:17.109Z,91.99
2019-01-26T17:57:47.737Z,91.91
2019-01-26T18:00:26.028Z,91.73
2019-01-26T18:02:56.468Z,91.45
2019-01-26T18:05:26.930Z,91.02
2019-01-26T18:07:57.397Z,90.91
2019-01-26T18:10:27.958Z,91.26
2019-01-26T18:12:58.818Z,91.53
2019-01-26T18:15:29.297Z,91.10
2019-01-26T18:17:59.729Z,91.34
2019-01-26T18:20:30.622Z,91.17
2019-01-26T18:23:02.339Z,91.18
2019-01-26T18:25:35.700Z,91.25
2019-01-26T18:28:06.301Z,91.65
2019-01-26T18:30:48.036Z,91.24
2019-01-26T18:33:18.512Z,90.91
2019-01-26T18:35:48.977Z,90.52
2019-01-26T18:38:19.436Z,90.34
2019-01-26T18:40:50.739Z,90.06
2019-01-26T18:43:21.182Z,89.98
2019-01-26T18:45:51.603Z,90.70
2019-01-26T18:48:22.098Z,90.48
2019-01-26T18:50:56.376Z,91.34
2019-01-26T18:53:27.045Z,91.88
2019-01-26T18:55:57.424Z,92.21
2019-01-26T18:58:27.869Z,91.94
2019-01-26T19:00:58.376Z,92.70
2019-01-26T19:04:00.050Z,92.87
2019-01-26T19:06:32.610Z,92.36
2019-01-26T19:09:04.642Z,92.11
2019-01-26T19:11:35.427Z,91.77
2019-01-26T19:14:06.269Z,91.36
2019-01-26T19:16:36.741Z,91.51
2019-01-26T19:19:07.239Z,91.06
2019-01-26T19:21:39.161Z,90.98
2019-01-26T19:24:10.241Z,91.07
2019-01-26T19:26:40.696Z,90.96
2019-01-26T19:29:11.187Z,91.35
2019-01-26T19:31:41.608Z,91.95
2019-01-26T19:34:12.107Z,92.00
2019-01-26T19:36:44.036Z,91.96
2019-01-26T19:39:14.469Z,91.89
2019-01-26T19:41:44.900Z,91.81
2019-01-26T19:44:15.395Z,92.45
2019-01-26T19:46:45.833Z,91.85
2019-01-26T19:49:17.275Z,92.08
2019-01-26T19:51:48.188Z,92.43
2019-01-26T19:54:18.673Z,92.09
2019-01-26T19:56:49.197Z,92.30
2019-01-26T19:59:19.685Z,92.98
2019-01-26T20:01:50.490Z,93.56
2019-01-26T20:04:21.721Z,93.13
2019-01-26T20:06:54.907Z,93.56
2019-01-26T20:09:25.356Z,92.81
2019-01-26T20:11:55.801Z,92.64
2019-01-26T20:14:26.320Z,92.54
2019-01-26T20:16:56.762Z,93.13
2019-01-26T20:19:28.452Z,93.45
2019-01-26T20:21:59.437Z,93.58
2019-01-26T20:24:29.884Z,94.04
2019-01-26T20:27:00.326Z,94.60
2019-01-26T20:29:30.833Z,94.35
2019-01-26T20:32:01.269Z,94.19
2019-01-26T20:34:31.909Z,94.26
2019-01-26T20:37:03.120Z,94.50
2019-01-26T20:39:33.585Z,94.87
2019-01-26T20:42:04.143Z,94.60
2019-01-26T20:44:35.108Z,94.46
2019-01-26T20:47:05.691Z,94.59
2019-01-26T20:49:36.175Z,94.79
2019-01-26T20:52:07.690Z,94.86
2019-01-26T20:54:38.524Z,94.98
2019-01-26T20:57:11.242Z,94.93
2019-01-26T20:59:41.745Z,95.03
2019-01-26T21:02:12.520Z,95.10
2019-01-26T21:04:44.043Z,94.89
2019-01-26T21:07:20.707Z,95.07
2019-01-26T21:09:51.214Z,95.08
2019-01-26T21:12:21.653Z,95.05
2019-01-26T21:14:52.432Z,95.04
2019-01-26T21:17:23.527Z,94.85
2019-01-26T21:19:54.336Z,94.60
2019-01-26T21:22:24.945Z,94.66
2019-01-26T21:24:55.837Z,94.90
2019-01-26T21:27:26.280Z,94.79
2019-01-26T21:29:58.133Z,94.83
2019-01-26T21:32:29.644Z,95.19
2019-01-26T21:35:00.181Z,95.09
2019-01-26T21:37:30.769Z,94.98
2019-01-26T21:40:01.232Z,95.28
2019-01-26T21:42:32.352Z,95.17
2019-01-26T21:45:03.177Z,95.13
2019-01-26T21:47:34.135Z,94.98
2019-01-26T21:50:05.907Z,94.86
2019-01-26T21:52:40.928Z,95.04
2019-01-26T21:55:09.829Z,94.74
2019-01-26T21:57:40.337Z,94.90
2019-01-26T22:00:17.356Z,94.82
2019-01-26T22:02:47.896Z,95.27
2019-01-26T22:05:18.355Z,95.21
2019-01-26T22:07:50.150Z,95.42
2019-01-26T22:10:21.942Z,95.08
2019-01-26T22:12:52.761Z,94.83
2019-01-26T22:15:24.044Z,94.63
2019-01-26T22:17:54.855Z,94.58
2019-01-26T22:20:27.250Z,94.52
2019-01-26T22:22:58.067Z,94.37
2019-01-26T22:25:28.511Z,94.32
2019-01-26T22:27:59.123Z,94.37
2019-01-26T22:30:31.729Z,94.59
2019-01-26T22:33:02.476Z,94.09
2019-01-26T22:35:33.250Z,94.10
2019-01-26T22:38:03.735Z,94.29
2019-01-26T22:40:37.883Z,94.27
2019-01-26T22:43:08.783Z,94.36
2019-01-26T22:45:39.316Z,94.55
2019-01-26T22:48:10.208Z,94.39
2019-01-26T22:50:40.839Z,94.47
2019-01-26T22:53:11.681Z,94.45
2019-01-26T22:55:42.120Z,94.36
2019-01-26T22:58:12.604Z,94.22
2019-01-26T23:01:14.276Z,94.22
2019-01-26T23:04:19.627Z,94.16
2019-01-26T23:07:19.167Z,94.30
2019-01-26T23:10:13.786Z,94.31
2019-01-26T23:12:54.451Z,93.81
2019-01-26T23:16:27.140Z,93.71
2019-01-26T23:19:26.532Z,93.53
2019-01-26T23:23:08.157Z,93.33
2019-01-26T23:25:53.515Z,93.45
2019-01-26T23:29:00.744Z,93.67
2019-01-26T23:31:31.170Z,93.64
2019-01-26T23:34:01.603Z,93.58
2019-01-26T23:36:32.074Z,93.52
2019-01-26T23:39:02.770Z,93.26
2019-01-26T23:41:34.092Z,93.31
2019-01-26T23:44:04.831Z,93.31
2019-01-26T23:46:35.251Z,93.38
2019-01-26T23:49:06.023Z,93.10
2019-01-26T23:51:37.126Z,92.99
2019-01-26T23:54:07.654Z,92.53
2019-01-26T23:56:38.476Z,92.90
2019-01-26T23:59:08.918Z,92.29
